sensor_id;sensor_type;location;lat;lon;timestamp;P1;durP1;ratioP1;P2;durP2;ratioP2
5303;SDS011;2674;49.722;10.892;2024-03-06T00:01:04;34.13;;;16.43;;
5303;SDS011;2674;49.722;10.892;2024-03-06T00:03:32;32.53;;;17.33;;
5303;SDS011;2674;49.722;10.892;2024-03-06T00:06:01;28.90;;;16.00;;
5303;SDS011;2674;49.722;10.892;2024-03-06T00:08:27;26.17;;;15.53;;
5303;SDS011;2674;49.722;10.892;2024-03-06T00:10:53;26.87;;;14.87;;
5303;SDS011;2674;49.722;10.892;2024-03-06T00:13:19;27.43;;;14.90;;
5303;SDS011;2674;49.722;10.892;2024-03-06T00:15:45;24.20;;;14.90;;
5303;SDS011;2674;49.722;10.892;2024-03-06T00:18:11;32.30;;;16.67;;
5303;SDS011;2674;49.722;10.892;2024-03-06T00:20:37;29.53;;;15.90;;
5303;SDS011;2674;49.722;10.892;2024-03-06T00:23:03;31.23;;;16.00;;
5303;SDS011;2674;49.722;10.892;2024-03-06T00:25:29;27.60;;;16.13;;
5303;SDS011;2674;49.722;10.892;2024-03-06T00:27:54;27.83;;;15.73;;
5303;SDS011;2674;49.722;10.892;2024-03-06T00:30:20;30.77;;;15.70;;
5303;SDS011;2674;49.722;10.892;2024-03-06T00:32:46;30.40;;;16.07;;
5303;SDS011;2674;49.722;10.892;2024-03-06T00:35:12;25.57;;;14.10;;
5303;SDS011;2674;49.722;10.892;2024-03-06T00:37:38;27.97;;;14.83;;
5303;SDS011;2674;49.722;10.892;2024-03-06T00:40:04;28.77;;;16.63;;
5303;SDS011;2674;49.722;10.892;2024-03-06T00:42:31;32.20;;;16.53;;
5303;SDS011;2674;49.722;10.892;2024-03-06T00:44:57;30.57;;;17.30;;
5303;SDS011;2674;49.722;10.892;2024-03-06T00:47:22;31.13;;;17.20;;
5303;SDS011;2674;49.722;10.892;2024-03-06T00:49:48;28.10;;;15.60;;
5303;SDS011;2674;49.722;10.892;2024-03-06T00:52:14;31.47;;;16.80;;
5303;SDS011;2674;49.722;10.892;2024-03-06T00:54:40;27.73;;;15.97;;
5303;SDS011;2674;49.722;10.892;2024-03-06T00:57:05;31.00;;;16.60;;
5303;SDS011;2674;49.722;10.892;2024-03-06T00:59:31;32.53;;;17.60;;
5303;SDS011;2674;49.722;10.892;2024-03-06T01:01:57;25.87;;;15.67;;
5303;SDS011;2674;49.722;10.892;2024-03-06T01:04:23;34.83;;;17.67;;
5303;SDS011;2674;49.722;10.892;2024-03-06T01:06:48;34.67;;;18.13;;
5303;SDS011;2674;49.722;10.892;2024-03-06T01:09:15;35.97;;;18.87;;
5303;SDS011;2674;49.722;10.892;2024-03-06T01:11:41;30.13;;;17.87;;
5303;SDS011;2674;49.722;10.892;2024-03-06T01:14:06;31.07;;;17.20;;
5303;SDS011;2674;49.722;10.892;2024-03-06T01:16:32;30.40;;;16.20;;
5303;SDS011;2674;49.722;10.892;2024-03-06T01:18:58;33.37;;;16.37;;
5303;SDS011;2674;49.722;10.892;2024-03-06T01:21:27;31.33;;;18.23;;
5303;SDS011;2674;49.722;10.892;2024-03-06T01:23:54;31.20;;;17.67;;
5303;SDS011;2674;49.722;10.892;2024-03-06T01:26:20;26.73;;;16.10;;
5303;SDS011;2674;49.722;10.892;2024-03-06T01:28:46;28.77;;;15.60;;
5303;SDS011;2674;49.722;10.892;2024-03-06T01:31:11;28.97;;;16.10;;
5303;SDS011;2674;49.722;10.892;2024-03-06T01:33:37;26.93;;;15.30;;
5303;SDS011;2674;49.722;10.892;2024-03-06T01:36:04;33.30;;;17.10;;
5303;SDS011;2674;49.722;10.892;2024-03-06T01:38:30;31.60;;;17.40;;
5303;SDS011;2674;49.722;10.892;2024-03-06T01:40:55;31.77;;;17.43;;
5303;SDS011;2674;49.722;10.892;2024-03-06T01:43:22;39.20;;;16.70;;
5303;SDS011;2674;49.722;10.892;2024-03-06T01:45:49;27.13;;;16.57;;
5303;SDS011;2674;49.722;10.892;2024-03-06T01:48:26;29.43;;;16.40;;
5303;SDS011;2674;49.722;10.892;2024-03-06T01:50:54;38.17;;;18.37;;
5303;SDS011;2674;49.722;10.892;2024-03-06T01:53:22;39.50;;;19.30;;
5303;SDS011;2674;49.722;10.892;2024-03-06T01:55:52;40.03;;;19.53;;
5303;SDS011;2674;49.722;10.892;2024-03-06T01:58:18;34.37;;;17.60;;
5303;SDS011;2674;49.722;10.892;2024-03-06T02:00:46;32.80;;;17.90;;
5303;SDS011;2674;49.722;10.892;2024-03-06T02:03:14;37.90;;;18.10;;
5303;SDS011;2674;49.722;10.892;2024-03-06T02:05:40;33.77;;;18.77;;
5303;SDS011;2674;49.722;10.892;2024-03-06T02:08:07;38.97;;;20.30;;
5303;SDS011;2674;49.722;10.892;2024-03-06T02:10:33;37.77;;;20.50;;
5303;SDS011;2674;49.722;10.892;2024-03-06T02:12:59;33.33;;;18.87;;
5303;SDS011;2674;49.722;10.892;2024-03-06T02:15:25;39.93;;;20.53;;
5303;SDS011;2674;49.722;10.892;2024-03-06T02:17:51;35.17;;;18.50;;
5303;SDS011;2674;49.722;10.892;2024-03-06T02:20:24;41.47;;;18.17;;
5303;SDS011;2674;49.722;10.892;2024-03-06T02:22:50;33.93;;;18.20;;
5303;SDS011;2674;49.722;10.892;2024-03-06T02:25:17;34.97;;;18.27;;
5303;SDS011;2674;49.722;10.892;2024-03-06T02:27:44;32.53;;;17.90;;
5303;SDS011;2674;49.722;10.892;2024-03-06T02:30:10;39.07;;;18.47;;
5303;SDS011;2674;49.722;10.892;2024-03-06T02:32:36;33.07;;;17.77;;
5303;SDS011;2674;49.722;10.892;2024-03-06T02:35:02;35.10;;;18.00;;
5303;SDS011;2674;49.722;10.892;2024-03-06T02:37:28;37.87;;;20.00;;
5303;SDS011;2674;49.722;10.892;2024-03-06T02:39:54;34.23;;;18.10;;
5303;SDS011;2674;49.722;10.892;2024-03-06T02:42:20;47.30;;;19.73;;
5303;SDS011;2674;49.722;10.892;2024-03-06T02:44:46;38.50;;;22.30;;
5303;SDS011;2674;49.722;10.892;2024-03-06T02:47:11;40.07;;;19.27;;
5303;SDS011;2674;49.722;10.892;2024-03-06T02:49:37;39.57;;;19.83;;
5303;SDS011;2674;49.722;10.892;2024-03-06T02:52:03;35.37;;;19.40;;
5303;SDS011;2674;49.722;10.892;2024-03-06T02:54:29;41.07;;;19.70;;
5303;SDS011;2674;49.722;10.892;2024-03-06T02:56:55;37.93;;;20.23;;
5303;SDS011;2674;49.722;10.892;2024-03-06T02:59:21;37.83;;;19.00;;
5303;SDS011;2674;49.722;10.892;2024-03-06T03:01:47;38.30;;;20.13;;
5303;SDS011;2674;49.722;10.892;2024-03-06T03:04:13;36.57;;;20.33;;
5303;SDS011;2674;49.722;10.892;2024-03-06T03:06:39;42.67;;;19.43;;
5303;SDS011;2674;49.722;10.892;2024-03-06T03:09:04;39.37;;;20.03;;
5303;SDS011;2674;49.722;10.892;2024-03-06T03:11:30;37.73;;;20.73;;
5303;SDS011;2674;49.722;10.892;2024-03-06T03:13:57;38.30;;;19.27;;
5303;SDS011;2674;49.722;10.892;2024-03-06T03:16:23;41.93;;;20.87;;
5303;SDS011;2674;49.722;10.892;2024-03-06T03:18:48;44.27;;;19.97;;
5303;SDS011;2674;49.722;10.892;2024-03-06T03:21:14;44.77;;;23.80;;
5303;SDS011;2674;49.722;10.892;2024-03-06T03:23:40;41.30;;;20.50;;
5303;SDS011;2674;49.722;10.892;2024-03-06T03:26:07;36.50;;;20.40;;
5303;SDS011;2674;49.722;10.892;2024-03-06T03:28:37;39.60;;;19.83;;
5303;SDS011;2674;49.722;10.892;2024-03-06T03:31:09;44.60;;;20.40;;
5303;SDS011;2674;49.722;10.892;2024-03-06T03:33:41;38.60;;;20.67;;
5303;SDS011;2674;49.722;10.892;2024-03-06T03:36:07;42.57;;;20.37;;
5303;SDS011;2674;49.722;10.892;2024-03-06T03:38:34;45.90;;;20.27;;
5303;SDS011;2674;49.722;10.892;2024-03-06T03:41:03;40.17;;;20.57;;
5303;SDS011;2674;49.722;10.892;2024-03-06T03:43:32;48.37;;;21.97;;
5303;SDS011;2674;49.722;10.892;2024-03-06T03:45:58;35.87;;;19.60;;
5303;SDS011;2674;49.722;10.892;2024-03-06T03:48:24;40.83;;;19.70;;
5303;SDS011;2674;49.722;10.892;2024-03-06T03:50:50;41.67;;;20.10;;
5303;SDS011;2674;49.722;10.892;2024-03-06T03:53:16;40.30;;;21.03;;
5303;SDS011;2674;49.722;10.892;2024-03-06T03:55:41;42.07;;;20.53;;
5303;SDS011;2674;49.722;10.892;2024-03-06T03:58:07;48.83;;;21.60;;
5303;SDS011;2674;49.722;10.892;2024-03-06T04:00:33;46.00;;;21.03;;
5303;SDS011;2674;49.722;10.892;2024-03-06T04:02:59;40.70;;;20.17;;
5303;SDS011;2674;49.722;10.892;2024-03-06T04:05:25;46.00;;;22.37;;
5303;SDS011;2674;49.722;10.892;2024-03-06T04:07:50;48.80;;;22.00;;
5303;SDS011;2674;49.722;10.892;2024-03-06T04:10:16;46.77;;;23.83;;
5303;SDS011;2674;49.722;10.892;2024-03-06T04:12:42;46.37;;;21.70;;
5303;SDS011;2674;49.722;10.892;2024-03-06T04:15:08;48.00;;;21.70;;
5303;SDS011;2674;49.722;10.892;2024-03-06T04:17:34;36.40;;;20.63;;
5303;SDS011;2674;49.722;10.892;2024-03-06T04:20:03;38.23;;;19.23;;
5303;SDS011;2674;49.722;10.892;2024-03-06T04:22:33;43.73;;;20.37;;
5303;SDS011;2674;49.722;10.892;2024-03-06T04:24:59;43.27;;;20.90;;
5303;SDS011;2674;49.722;10.892;2024-03-06T04:27:25;36.17;;;19.50;;
5303;SDS011;2674;49.722;10.892;2024-03-06T04:29:51;45.47;;;21.77;;
5303;SDS011;2674;49.722;10.892;2024-03-06T04:32:17;42.10;;;21.17;;
5303;SDS011;2674;49.722;10.892;2024-03-06T04:34:43;42.37;;;19.50;;
5303;SDS011;2674;49.722;10.892;2024-03-06T04:37:09;41.50;;;21.27;;
5303;SDS011;2674;49.722;10.892;2024-03-06T04:39:35;40.63;;;21.97;;
5303;SDS011;2674;49.722;10.892;2024-03-06T04:42:01;39.50;;;20.60;;
5303;SDS011;2674;49.722;10.892;2024-03-06T04:44:27;43.13;;;20.20;;
5303;SDS011;2674;49.722;10.892;2024-03-06T04:46:53;47.20;;;22.20;;
5303;SDS011;2674;49.722;10.892;2024-03-06T04:49:19;47.37;;;21.90;;
5303;SDS011;2674;49.722;10.892;2024-03-06T04:51:44;41.90;;;22.60;;
5303;SDS011;2674;49.722;10.892;2024-03-06T04:54:10;40.33;;;22.40;;
5303;SDS011;2674;49.722;10.892;2024-03-06T04:56:36;51.03;;;23.73;;
5303;SDS011;2674;49.722;10.892;2024-03-06T04:59:02;49.37;;;22.00;;
5303;SDS011;2674;49.722;10.892;2024-03-06T05:01:28;49.00;;;23.17;;
5303;SDS011;2674;49.722;10.892;2024-03-06T05:03:54;50.10;;;23.47;;
5303;SDS011;2674;49.722;10.892;2024-03-06T05:06:21;42.43;;;22.63;;
5303;SDS011;2674;49.722;10.892;2024-03-06T05:08:47;44.13;;;22.43;;
5303;SDS011;2674;49.722;10.892;2024-03-06T05:11:13;46.93;;;22.87;;
5303;SDS011;2674;49.722;10.892;2024-03-06T05:13:39;47.13;;;22.13;;
5303;SDS011;2674;49.722;10.892;2024-03-06T05:16:05;48.47;;;21.97;;
5303;SDS011;2674;49.722;10.892;2024-03-06T05:18:33;52.60;;;23.63;;
5303;SDS011;2674;49.722;10.892;2024-03-06T05:21:00;43.97;;;22.70;;
5303;SDS011;2674;49.722;10.892;2024-03-06T05:23:25;50.80;;;22.57;;
5303;SDS011;2674;49.722;10.892;2024-03-06T05:25:51;50.63;;;24.73;;
5303;SDS011;2674;49.722;10.892;2024-03-06T05:28:17;44.60;;;21.70;;
5303;SDS011;2674;49.722;10.892;2024-03-06T05:30:43;48.53;;;23.90;;
5303;SDS011;2674;49.722;10.892;2024-03-06T05:33:09;54.00;;;23.90;;
5303;SDS011;2674;49.722;10.892;2024-03-06T05:35:39;50.03;;;23.27;;
5303;SDS011;2674;49.722;10.892;2024-03-06T05:38:04;42.73;;;20.97;;
5303;SDS011;2674;49.722;10.892;2024-03-06T05:40:32;50.20;;;23.40;;
5303;SDS011;2674;49.722;10.892;2024-03-06T05:43:02;50.87;;;24.00;;
5303;SDS011;2674;49.722;10.892;2024-03-06T05:45:28;42.17;;;22.20;;
5303;SDS011;2674;49.722;10.892;2024-03-06T05:47:54;41.47;;;23.30;;
5303;SDS011;2674;49.722;10.892;2024-03-06T05:50:20;48.80;;;22.20;;
5303;SDS011;2674;49.722;10.892;2024-03-06T05:52:46;44.30;;;21.47;;
5303;SDS011;2674;49.722;10.892;2024-03-06T05:55:12;36.87;;;19.40;;
5303;SDS011;2674;49.722;10.892;2024-03-06T05:57:37;43.87;;;21.23;;
5303;SDS011;2674;49.722;10.892;2024-03-06T06:00:04;48.87;;;22.40;;
5303;SDS011;2674;49.722;10.892;2024-03-06T06:02:36;44.43;;;21.57;;
5303;SDS011;2674;49.722;10.892;2024-03-06T06:05:02;52.47;;;22.87;;
5303;SDS011;2674;49.722;10.892;2024-03-06T06:07:29;48.50;;;22.37;;
5303;SDS011;2674;49.722;10.892;2024-03-06T06:09:55;47.60;;;23.13;;
5303;SDS011;2674;49.722;10.892;2024-03-06T06:12:20;41.90;;;21.83;;
5303;SDS011;2674;49.722;10.892;2024-03-06T06:14:46;45.80;;;23.53;;
5303;SDS011;2674;49.722;10.892;2024-03-06T06:17:12;46.20;;;21.30;;
5303;SDS011;2674;49.722;10.892;2024-03-06T06:19:41;45.87;;;20.83;;
5303;SDS011;2674;49.722;10.892;2024-03-06T06:22:08;44.23;;;22.80;;
5303;SDS011;2674;49.722;10.892;2024-03-06T06:24:36;53.67;;;22.90;;
5303;SDS011;2674;49.722;10.892;2024-03-06T06:27:03;52.47;;;22.80;;
5303;SDS011;2674;49.722;10.892;2024-03-06T06:29:29;49.77;;;22.67;;
5303;SDS011;2674;49.722;10.892;2024-03-06T06:31:56;54.03;;;24.60;;
5303;SDS011;2674;49.722;10.892;2024-03-06T06:34:22;48.37;;;22.63;;
5303;SDS011;2674;49.722;10.892;2024-03-06T06:36:50;49.27;;;21.93;;
5303;SDS011;2674;49.722;10.892;2024-03-06T06:39:17;52.43;;;24.00;;
5303;SDS011;2674;49.722;10.892;2024-03-06T06:41:43;50.03;;;23.10;;
5303;SDS011;2674;49.722;10.892;2024-03-06T06:44:09;46.30;;;22.47;;
5303;SDS011;2674;49.722;10.892;2024-03-06T06:46:35;61.43;;;24.07;;
5303;SDS011;2674;49.722;10.892;2024-03-06T06:49:01;58.57;;;24.60;;
5303;SDS011;2674;49.722;10.892;2024-03-06T06:51:26;54.43;;;24.23;;
5303;SDS011;2674;49.722;10.892;2024-03-06T06:53:52;53.70;;;25.00;;
5303;SDS011;2674;49.722;10.892;2024-03-06T06:56:19;49.10;;;24.03;;
5303;SDS011;2674;49.722;10.892;2024-03-06T06:58:49;58.53;;;23.37;;
5303;SDS011;2674;49.722;10.892;2024-03-06T07:01:15;70.73;;;26.90;;
5303;SDS011;2674;49.722;10.892;2024-03-06T07:03:44;93.97;;;34.57;;
5303;SDS011;2674;49.722;10.892;2024-03-06T07:06:09;63.20;;;25.30;;
5303;SDS011;2674;49.722;10.892;2024-03-06T07:08:36;63.23;;;28.27;;
5303;SDS011;2674;49.722;10.892;2024-03-06T07:11:02;57.57;;;26.00;;
5303;SDS011;2674;49.722;10.892;2024-03-06T07:13:28;57.40;;;24.03;;
5303;SDS011;2674;49.722;10.892;2024-03-06T07:15:54;50.87;;;23.33;;
5303;SDS011;2674;49.722;10.892;2024-03-06T07:18:20;52.00;;;24.60;;
5303;SDS011;2674;49.722;10.892;2024-03-06T07:20:46;54.10;;;23.07;;
5303;SDS011;2674;49.722;10.892;2024-03-06T07:23:12;58.00;;;24.13;;
5303;SDS011;2674;49.722;10.892;2024-03-06T07:25:38;55.03;;;22.10;;
5303;SDS011;2674;49.722;10.892;2024-03-06T07:28:04;58.37;;;24.03;;
5303;SDS011;2674;49.722;10.892;2024-03-06T07:30:30;55.77;;;21.97;;
5303;SDS011;2674;49.722;10.892;2024-03-06T07:32:56;50.20;;;23.13;;
5303;SDS011;2674;49.722;10.892;2024-03-06T07:35:22;48.63;;;23.30;;
5303;SDS011;2674;49.722;10.892;2024-03-06T07:37:48;50.70;;;22.17;;
5303;SDS011;2674;49.722;10.892;2024-03-06T07:40:14;52.23;;;22.03;;
5303;SDS011;2674;49.722;10.892;2024-03-06T07:42:40;53.97;;;23.97;;
5303;SDS011;2674;49.722;10.892;2024-03-06T07:45:07;46.40;;;21.67;;
5303;SDS011;2674;49.722;10.892;2024-03-06T07:47:34;59.37;;;22.53;;
5303;SDS011;2674;49.722;10.892;2024-03-06T07:50:00;51.50;;;22.40;;
5303;SDS011;2674;49.722;10.892;2024-03-06T07:52:26;54.07;;;21.97;;
5303;SDS011;2674;49.722;10.892;2024-03-06T07:54:51;58.17;;;21.43;;
5303;SDS011;2674;49.722;10.892;2024-03-06T07:57:17;50.00;;;23.83;;
5303;SDS011;2674;49.722;10.892;2024-03-06T07:59:43;48.50;;;21.60;;
5303;SDS011;2674;49.722;10.892;2024-03-06T08:02:09;42.87;;;21.33;;
5303;SDS011;2674;49.722;10.892;2024-03-06T08:04:34;36.90;;;18.90;;
5303;SDS011;2674;49.722;10.892;2024-03-06T08:07:00;37.80;;;18.37;;
5303;SDS011;2674;49.722;10.892;2024-03-06T08:09:26;40.27;;;19.47;;
5303;SDS011;2674;49.722;10.892;2024-03-06T08:11:54;43.93;;;19.77;;
5303;SDS011;2674;49.722;10.892;2024-03-06T08:14:20;39.17;;;18.30;;
5303;SDS011;2674;49.722;10.892;2024-03-06T08:16:46;35.50;;;19.10;;
5303;SDS011;2674;49.722;10.892;2024-03-06T08:19:12;40.27;;;21.10;;
5303;SDS011;2674;49.722;10.892;2024-03-06T08:21:38;42.93;;;19.00;;
5303;SDS011;2674;49.722;10.892;2024-03-06T08:24:03;43.43;;;18.53;;
5303;SDS011;2674;49.722;10.892;2024-03-06T08:26:29;34.80;;;16.90;;
5303;SDS011;2674;49.722;10.892;2024-03-06T08:28:55;33.83;;;18.10;;
5303;SDS011;2674;49.722;10.892;2024-03-06T08:31:21;39.43;;;18.17;;
5303;SDS011;2674;49.722;10.892;2024-03-06T08:33:47;37.60;;;18.50;;
5303;SDS011;2674;49.722;10.892;2024-03-06T08:36:13;32.50;;;17.60;;
5303;SDS011;2674;49.722;10.892;2024-03-06T08:38:39;43.37;;;17.67;;
5303;SDS011;2674;49.722;10.892;2024-03-06T08:41:06;37.00;;;18.27;;
5303;SDS011;2674;49.722;10.892;2024-03-06T08:43:34;43.53;;;20.20;;
5303;SDS011;2674;49.722;10.892;2024-03-06T08:46:00;36.80;;;17.13;;
5303;SDS011;2674;49.722;10.892;2024-03-06T08:48:26;32.33;;;15.73;;
5303;SDS011;2674;49.722;10.892;2024-03-06T08:50:51;30.57;;;14.77;;
5303;SDS011;2674;49.722;10.892;2024-03-06T08:53:17;34.20;;;15.90;;
5303;SDS011;2674;49.722;10.892;2024-03-06T08:55:43;30.53;;;15.83;;
5303;SDS011;2674;49.722;10.892;2024-03-06T08:58:09;28.10;;;14.30;;
5303;SDS011;2674;49.722;10.892;2024-03-06T09:00:35;31.40;;;16.30;;
5303;SDS011;2674;49.722;10.892;2024-03-06T09:03:02;31.07;;;16.03;;
5303;SDS011;2674;49.722;10.892;2024-03-06T09:05:28;27.90;;;14.50;;
5303;SDS011;2674;49.722;10.892;2024-03-06T09:07:54;27.73;;;12.97;;
5303;SDS011;2674;49.722;10.892;2024-03-06T09:10:22;27.70;;;13.33;;
5303;SDS011;2674;49.722;10.892;2024-03-06T09:12:48;26.87;;;12.97;;
5303;SDS011;2674;49.722;10.892;2024-03-06T09:15:14;23.20;;;12.57;;
5303;SDS011;2674;49.722;10.892;2024-03-06T09:17:41;28.07;;;12.70;;
5303;SDS011;2674;49.722;10.892;2024-03-06T09:20:07;35.03;;;16.47;;
5303;SDS011;2674;49.722;10.892;2024-03-06T09:22:40;31.43;;;14.97;;
5303;SDS011;2674;49.722;10.892;2024-03-06T09:25:06;28.00;;;11.43;;
5303;SDS011;2674;49.722;10.892;2024-03-06T09:27:32;26.90;;;14.10;;
5303;SDS011;2674;49.722;10.892;2024-03-06T09:29:58;28.10;;;12.50;;
5303;SDS011;2674;49.722;10.892;2024-03-06T09:32:24;21.97;;;12.80;;
5303;SDS011;2674;49.722;10.892;2024-03-06T09:34:51;24.90;;;13.00;;
5303;SDS011;2674;49.722;10.892;2024-03-06T09:37:18;25.57;;;12.70;;
5303;SDS011;2674;49.722;10.892;2024-03-06T09:39:44;26.45;;;13.27;;
5303;SDS011;2674;49.722;10.892;2024-03-06T09:42:12;29.30;;;14.13;;
5303;SDS011;2674;49.722;10.892;2024-03-06T09:44:39;32.10;;;14.43;;
5303;SDS011;2674;49.722;10.892;2024-03-06T09:47:05;28.60;;;13.53;;
5303;SDS011;2674;49.722;10.892;2024-03-06T09:49:32;21.80;;;11.50;;
5303;SDS011;2674;49.722;10.892;2024-03-06T09:51:59;24.83;;;13.20;;
5303;SDS011;2674;49.722;10.892;2024-03-06T09:54:28;22.60;;;12.23;;
5303;SDS011;2674;49.722;10.892;2024-03-06T09:56:54;24.87;;;12.10;;
5303;SDS011;2674;49.722;10.892;2024-03-06T09:59:22;26.00;;;12.43;;
5303;SDS011;2674;49.722;10.892;2024-03-06T10:04:25;25.40;;;12.90;;
5303;SDS011;2674;49.722;10.892;2024-03-06T10:06:59;22.20;;;12.10;;
5303;SDS011;2674;49.722;10.892;2024-03-06T10:09:27;26.63;;;12.93;;
5303;SDS011;2674;49.722;10.892;2024-03-06T10:11:54;24.93;;;12.40;;
5303;SDS011;2674;49.722;10.892;2024-03-06T10:14:23;24.73;;;12.50;;
5303;SDS011;2674;49.722;10.892;2024-03-06T10:19:19;22.10;;;12.03;;
5303;SDS011;2674;49.722;10.892;2024-03-06T10:21:48;21.93;;;10.97;;
5303;SDS011;2674;49.722;10.892;2024-03-06T10:24:25;21.00;;;11.70;;
5303;SDS011;2674;49.722;10.892;2024-03-06T10:26:54;26.90;;;10.77;;
5303;SDS011;2674;49.722;10.892;2024-03-06T10:29:23;24.70;;;11.30;;
5303;SDS011;2674;49.722;10.892;2024-03-06T10:31:58;24.87;;;11.70;;
5303;SDS011;2674;49.722;10.892;2024-03-06T10:34:25;27.80;;;12.47;;
5303;SDS011;2674;49.722;10.892;2024-03-06T10:37:01;22.07;;;12.30;;
5303;SDS011;2674;49.722;10.892;2024-03-06T10:39:34;19.77;;;10.13;;
5303;SDS011;2674;49.722;10.892;2024-03-06T10:42:02;19.63;;;10.33;;
5303;SDS011;2674;49.722;10.892;2024-03-06T10:44:30;23.30;;;11.40;;
5303;SDS011;2674;49.722;10.892;2024-03-06T10:46:59;19.77;;;11.87;;
5303;SDS011;2674;49.722;10.892;2024-03-06T10:49:30;16.70;;;10.30;;
5303;SDS011;2674;49.722;10.892;2024-03-06T10:52:05;25.93;;;11.83;;
5303;SDS011;2674;49.722;10.892;2024-03-06T10:54:32;23.20;;;12.63;;
5303;SDS011;2674;49.722;10.892;2024-03-06T10:57:00;24.20;;;11.40;;
5303;SDS011;2674;49.722;10.892;2024-03-06T10:59:27;16.73;;;9.97;;
5303;SDS011;2674;49.722;10.892;2024-03-06T11:01:55;22.83;;;10.97;;
5303;SDS011;2674;49.722;10.892;2024-03-06T11:04:30;20.23;;;10.77;;
5303;SDS011;2674;49.722;10.892;2024-03-06T11:07:00;18.63;;;10.17;;
5303;SDS011;2674;49.722;10.892;2024-03-06T11:09:28;21.93;;;12.13;;
5303;SDS011;2674;49.722;10.892;2024-03-06T11:11:57;23.63;;;12.70;;
5303;SDS011;2674;49.722;10.892;2024-03-06T11:14:23;23.27;;;12.17;;
5303;SDS011;2674;49.722;10.892;2024-03-06T11:17:22;23.93;;;11.47;;
5303;SDS011;2674;49.722;10.892;2024-03-06T11:20:35;20.13;;;11.13;;
5303;SDS011;2674;49.722;10.892;2024-03-06T11:28:19;21.80;;;11.87;;
5303;SDS011;2674;49.722;10.892;2024-03-06T11:30:45;15.90;;;10.30;;
5303;SDS011;2674;49.722;10.892;2024-03-06T11:38:47;17.77;;;11.00;;
5303;SDS011;2674;49.722;10.892;2024-03-06T11:41:18;23.43;;;12.20;;
5303;SDS011;2674;49.722;10.892;2024-03-06T11:43:51;17.97;;;10.53;;
5303;SDS011;2674;49.722;10.892;2024-03-06T11:46:40;21.87;;;10.30;;
5303;SDS011;2674;49.722;10.892;2024-03-06T11:51:51;18.90;;;10.00;;
5303;SDS011;2674;49.722;10.892;2024-03-06T11:54:18;20.60;;;10.87;;
5303;SDS011;2674;49.722;10.892;2024-03-06T11:56:48;19.37;;;11.27;;
5303;SDS011;2674;49.722;10.892;2024-03-06T11:59:16;20.07;;;10.43;;
5303;SDS011;2674;49.722;10.892;2024-03-06T12:01:42;17.50;;;9.80;;
5303;SDS011;2674;49.722;10.892;2024-03-06T12:04:09;17.27;;;10.07;;
5303;SDS011;2674;49.722;10.892;2024-03-06T12:06:35;21.83;;;10.40;;
5303;SDS011;2674;49.722;10.892;2024-03-06T12:09:02;21.87;;;10.60;;
5303;SDS011;2674;49.722;10.892;2024-03-06T12:11:28;24.90;;;11.63;;
5303;SDS011;2674;49.722;10.892;2024-03-06T12:13:56;19.90;;;11.10;;
5303;SDS011;2674;49.722;10.892;2024-03-06T12:16:22;18.27;;;10.33;;
5303;SDS011;2674;49.722;10.892;2024-03-06T12:18:54;18.47;;;10.73;;
5303;SDS011;2674;49.722;10.892;2024-03-06T12:21:27;19.20;;;11.03;;
5303;SDS011;2674;49.722;10.892;2024-03-06T12:24:05;20.50;;;11.23;;
5303;SDS011;2674;49.722;10.892;2024-03-06T12:26:33;19.00;;;10.83;;
5303;SDS011;2674;49.722;10.892;2024-03-06T12:29:08;13.93;;;8.40;;
5303;SDS011;2674;49.722;10.892;2024-03-06T12:31:41;17.63;;;10.17;;
5303;SDS011;2674;49.722;10.892;2024-03-06T12:34:07;16.80;;;9.53;;
5303;SDS011;2674;49.722;10.892;2024-03-06T12:36:38;18.67;;;9.87;;
5303;SDS011;2674;49.722;10.892;2024-03-06T12:39:04;17.80;;;10.03;;
5303;SDS011;2674;49.722;10.892;2024-03-06T12:41:40;17.30;;;10.43;;
5303;SDS011;2674;49.722;10.892;2024-03-06T12:44:06;18.13;;;10.13;;
5303;SDS011;2674;49.722;10.892;2024-03-06T12:46:32;20.00;;;10.20;;
5303;SDS011;2674;49.722;10.892;2024-03-06T12:48:58;23.30;;;9.90;;
5303;SDS011;2674;49.722;10.892;2024-03-06T12:51:24;19.80;;;10.67;;
5303;SDS011;2674;49.722;10.892;2024-03-06T12:53:50;17.90;;;9.70;;
5303;SDS011;2674;49.722;10.892;2024-03-06T12:56:17;18.57;;;10.40;;
5303;SDS011;2674;49.722;10.892;2024-03-06T12:58:44;16.83;;;10.10;;
5303;SDS011;2674;49.722;10.892;2024-03-06T13:01:10;18.73;;;9.80;;
5303;SDS011;2674;49.722;10.892;2024-03-06T13:03:36;13.60;;;8.53;;
5303;SDS011;2674;49.722;10.892;2024-03-06T13:06:03;15.50;;;8.07;;
5303;SDS011;2674;49.722;10.892;2024-03-06T13:08:31;16.10;;;9.27;;
5303;SDS011;2674;49.722;10.892;2024-03-06T13:10:57;15.07;;;9.37;;
5303;SDS011;2674;49.722;10.892;2024-03-06T13:13:23;15.37;;;8.80;;
5303;SDS011;2674;49.722;10.892;2024-03-06T13:15:55;18.57;;;8.60;;
5303;SDS011;2674;49.722;10.892;2024-03-06T13:18:23;15.00;;;9.00;;
5303;SDS011;2674;49.722;10.892;2024-03-06T13:20:50;17.20;;;9.10;;
5303;SDS011;2674;49.722;10.892;2024-03-06T13:23:16;12.10;;;7.90;;
5303;SDS011;2674;49.722;10.892;2024-03-06T13:25:42;13.00;;;7.10;;
5303;SDS011;2674;49.722;10.892;2024-03-06T13:28:10;18.43;;;9.30;;
5303;SDS011;2674;49.722;10.892;2024-03-06T13:30:36;16.23;;;9.33;;
5303;SDS011;2674;49.722;10.892;2024-03-06T13:33:04;16.00;;;8.47;;
5303;SDS011;2674;49.722;10.892;2024-03-06T13:35:30;16.10;;;8.67;;
5303;SDS011;2674;49.722;10.892;2024-03-06T13:37:56;12.63;;;7.67;;
5303;SDS011;2674;49.722;10.892;2024-03-06T13:40:22;17.03;;;9.03;;
5303;SDS011;2674;49.722;10.892;2024-03-06T13:42:48;15.30;;;9.20;;
5303;SDS011;2674;49.722;10.892;2024-03-06T13:45:14;16.53;;;8.90;;
5303;SDS011;2674;49.722;10.892;2024-03-06T13:47:40;13.00;;;8.30;;
5303;SDS011;2674;49.722;10.892;2024-03-06T13:50:14;22.20;;;11.80;;
5303;SDS011;2674;49.722;10.892;2024-03-06T13:52:40;13.97;;;7.73;;
5303;SDS011;2674;49.722;10.892;2024-03-06T13:55:07;12.03;;;8.40;;
5303;SDS011;2674;49.722;10.892;2024-03-06T13:57:33;15.87;;;9.10;;
5303;SDS011;2674;49.722;10.892;2024-03-06T14:00:04;13.43;;;8.50;;
5303;SDS011;2674;49.722;10.892;2024-03-06T14:02:32;16.53;;;8.30;;
5303;SDS011;2674;49.722;10.892;2024-03-06T14:04:57;17.20;;;10.20;;
5303;SDS011;2674;49.722;10.892;2024-03-06T14:07:24;24.47;;;11.03;;
5303;SDS011;2674;49.722;10.892;2024-03-06T14:09:50;18.73;;;10.87;;
5303;SDS011;2674;49.722;10.892;2024-03-06T14:12:16;22.30;;;11.30;;
5303;SDS011;2674;49.722;10.892;2024-03-06T14:14:42;20.13;;;11.80;;
5303;SDS011;2674;49.722;10.892;2024-03-06T14:17:10;23.27;;;13.33;;
5303;SDS011;2674;49.722;10.892;2024-03-06T14:19:37;23.20;;;12.63;;
5303;SDS011;2674;49.722;10.892;2024-03-06T14:22:05;21.80;;;10.77;;
5303;SDS011;2674;49.722;10.892;2024-03-06T14:24:34;22.17;;;12.60;;
5303;SDS011;2674;49.722;10.892;2024-03-06T14:27:00;21.43;;;12.00;;
5303;SDS011;2674;49.722;10.892;2024-03-06T14:29:28;21.77;;;11.60;;
5303;SDS011;2674;49.722;10.892;2024-03-06T14:31:54;23.90;;;13.43;;
5303;SDS011;2674;49.722;10.892;2024-03-06T14:34:20;20.83;;;12.00;;
5303;SDS011;2674;49.722;10.892;2024-03-06T14:36:48;21.60;;;12.13;;
5303;SDS011;2674;49.722;10.892;2024-03-06T14:39:18;28.70;;;14.83;;
5303;SDS011;2674;49.722;10.892;2024-03-06T14:41:47;23.10;;;12.30;;
5303;SDS011;2674;49.722;10.892;2024-03-06T14:44:13;24.33;;;13.70;;
5303;SDS011;2674;49.722;10.892;2024-03-06T14:46:39;26.10;;;13.20;;
5303;SDS011;2674;49.722;10.892;2024-03-06T14:49:06;22.80;;;12.57;;
5303;SDS011;2674;49.722;10.892;2024-03-06T14:51:32;21.73;;;11.87;;
5303;SDS011;2674;49.722;10.892;2024-03-06T14:53:58;24.77;;;13.43;;